METAR Data
IDs: Format: Raw Decoded Include TAF

Data at: 0839 UTC 01 Aug 2021

ETOU 010756Z AUTO 00000KT 9999 SCT090 18/12 A2983 RMK AO2 SLP101 T01820120